Time;durP1;ratioP1;P1;durP2;ratioP2;P2;SDS_P1;SDS_P2;PMS_P1;PMS_P2;Temp;Humidity;BMP_temperature;BMP_pressure;BME280_temperature;BME280_humidity;BME280_pressure;Samples;Min_cycle;Max_cycle;Signal;HPM_P1;HPM_P2
2023/09/03 00:00:15;;;;;;;14.13;12.57;;;;;;;18.96;71.93;93401.78;5065438;28;20243;-84
2023/09/03 00:02:40;;;;;;;13.53;12.33;;;;;;;18.91;72.15;93409.09;5062517;28;20215;-84
2023/09/03 00:05:06;;;;;;;13.77;12.57;;;;;;;18.87;72.07;93402.84;5064987;28;20184;-83
2023/09/03 00:07:32;;;;;;;13.90;12.87;;;;;;;18.86;71.75;93401.31;5070900;28;20579;-84
2023/09/03 00:09:57;;;;;;;13.10;11.90;;;;;;;18.81;72.67;93404.09;5069779;28;20249;-84
2023/09/03 00:12:23;;;;;;;13.53;12.43;;;;;;;18.61;73.00;93408.09;5070244;28;20204;-82
2023/09/03 00:14:48;;;;;;;14.27;12.87;;;;;;;18.57;72.78;93401.88;5070373;28;20187;-83
2023/09/03 00:17:14;;;;;;;13.10;12.00;;;;;;;18.61;72.81;93421.34;5069360;28;20223;-84
2023/09/03 00:19:39;;;;;;;13.97;12.77;;;;;;;18.57;73.40;93419.59;5057114;28;20199;-84
2023/09/03 00:22:05;;;;;;;13.67;12.47;;;;;;;18.41;73.60;93421.13;5070121;28;20219;-84
2023/09/03 00:24:33;;;;;;;14.37;13.07;;;;;;;18.46;73.18;93420.97;5068282;28;20183;-83
2023/09/03 00:26:59;;;;;;;12.80;11.70;;;;;;;18.38;72.59;93411.91;5069171;28;20218;-80
2023/09/03 00:29:24;;;;;;;15.33;14.00;;;;;;;18.60;72.05;93429.59;5056220;28;20255;-84
2023/09/03 00:31:49;;;;;;;14.40;13.20;;;;;;;18.60;72.72;93440.16;5069462;28;20225;-82
2023/09/03 00:34:15;;;;;;;14.27;12.97;;;;;;;18.60;73.31;93434.88;5068282;28;20219;-83
2023/09/03 00:36:40;;;;;;;14.07;12.93;;;;;;;18.59;72.72;93425.34;5069312;28;20270;-83
2023/09/03 00:39:06;;;;;;;14.83;13.53;;;;;;;18.61;72.63;93425.84;5069764;28;20193;-83
2023/09/03 00:41:32;;;;;;;13.17;12.07;;;;;;;18.54;73.44;93428.13;5069289;28;20239;-84
2023/09/03 00:43:57;;;;;;;13.83;12.77;;;;;;;18.55;73.44;93433.13;5068563;28;20188;-84
2023/09/03 00:46:23;;;;;;;15.13;13.63;;;;;;;18.58;73.23;93421.97;5056592;28;20220;-83
2023/09/03 00:48:49;;;;;;;13.07;11.80;;;;;;;18.46;73.42;93418.34;5057037;28;20190;-84
2023/09/03 00:51:17;;;;;;;15.37;13.87;;;;;;;18.62;73.34;93422.09;5068607;28;20227;-82
2023/09/03 00:53:47;;;;;;;14.10;12.70;;;;;;;18.48;73.64;93416.94;5063227;28;20212;-83
2023/09/03 00:56:13;;;;;;;14.83;13.33;;;;;;;18.49;73.53;93412.44;5068282;28;20217;-83
2023/09/03 00:58:39;;;;;;;13.60;12.40;;;;;;;18.36;73.46;93402.72;5068117;28;20197;-83
2023/09/03 01:01:05;;;;;;;13.07;12.07;;;;;;;18.27;73.52;93405.31;5069045;28;20290;-84
2023/09/03 01:03:32;;;;;;;14.53;13.30;;;;;;;18.32;72.94;93402.53;5069099;28;20185;-84
2023/09/03 01:05:57;;;;;;;14.40;13.17;;;;;;;18.32;73.15;93399.13;5068947;28;20257;-83
2023/09/03 01:08:24;;;;;;;13.90;12.80;;;;;;;18.32;73.05;93401.78;5067320;28;20196;-84
2023/09/03 01:11:27;;;;;;;13.87;12.63;;;;;;;18.38;73.18;93398.69;5068182;28;20298;-83
2023/09/03 01:13:58;;;;;;;14.27;12.67;;;;;;;18.31;73.75;93402.84;5068508;28;20209;-84
2023/09/03 01:16:33;;;;;;;14.80;13.50;;;;;;;18.25;74.18;93385.56;5068166;28;21044;-84
2023/09/03 01:19:04;;;;;;;14.40;13.30;;;;;;;18.27;74.23;93391.34;5059261;28;20273;-83
2023/09/03 01:22:05;;;;;;;14.03;12.93;;;;;;;18.25;74.44;93401.44;5078859;28;20226;-83
2023/09/03 01:25:15;;;;;;;15.00;13.70;;;;;;;18.03;75.03;93399.63;5019725;28;20526;-84
2023/09/03 01:27:56;;;;;;;14.20;13.03;;;;;;;18.04;75.84;93400.41;5045637;28;20218;-83
2023/09/03 01:30:21;;;;;;;14.47;13.27;;;;;;;18.02;75.75;93400.72;5068147;28;20242;-84
2023/09/03 01:32:49;;;;;;;15.90;14.50;;;;;;;17.93;75.98;93404.41;5069201;28;20207;-83
2023/09/03 01:35:17;;;;;;;14.70;13.60;;;;;;;17.95;76.42;93396.94;5055070;28;20334;-84
2023/09/03 01:37:42;;;;;;;14.23;13.13;;;;;;;17.97;75.95;93405.34;5072852;28;20229;-84
2023/09/03 01:40:09;;;;;;;13.90;12.77;;;;;;;17.88;76.02;93399.25;5075300;28;20245;-84
2023/09/03 01:42:34;;;;;;;14.60;13.40;;;;;;;17.80;77.16;93399.97;5067572;28;20182;-82
2023/09/03 01:45:00;;;;;;;14.17;12.90;;;;;;;17.88;76.65;93394.75;5064582;28;20274;-84
2023/09/03 01:47:51;;;;;;;14.93;13.53;;;;;;;17.82;76.87;93397.81;5072351;28;20223;-83
2023/09/03 01:50:22;;;;;;;14.77;13.57;;;;;;;17.81;76.56;93404.97;5061236;28;20238;-83
2023/09/03 01:53:04;;;;;;;14.80;13.40;;;;;;;17.72;76.58;93398.06;5072320;28;20196;-83
2023/09/03 01:55:35;;;;;;;15.10;13.63;;;;;;;17.83;76.16;93404.66;5080449;28;20474;-83
2023/09/03 01:58:05;;;;;;;14.27;12.83;;;;;;;17.79;76.29;93409.00;5061520;28;20496;-84
2023/09/03 02:00:31;;;;;;;15.70;14.40;;;;;;;17.77;76.11;93404.03;5072188;28;20251;-84
2023/09/03 02:02:57;;;;;;;14.30;13.00;;;;;;;17.78;76.76;93410.06;5073064;28;20190;-84
2023/09/03 02:05:23;;;;;;;14.73;13.43;;;;;;;17.66;77.62;93394.00;5072305;28;20249;-84
2023/09/03 02:07:48;;;;;;;14.20;13.00;;;;;;;17.74;77.45;93398.56;5059500;28;20184;-84
2023/09/03 02:10:16;;;;;;;15.37;14.07;;;;;;;17.47;77.94;93395.00;5071508;28;20232;-82
2023/09/03 02:12:41;;;;;;;14.40;13.30;;;;;;;17.66;77.47;93399.28;5072448;28;21015;-84
2023/09/03 02:15:07;;;;;;;13.93;12.83;;;;;;;17.68;77.16;93397.91;5072353;28;20268;-83
2023/09/03 02:17:32;;;;;;;14.27;13.17;;;;;;;17.65;77.34;93398.50;5070241;28;20804;-84
2023/09/03 02:19:58;;;;;;;14.63;13.33;;;;;;;17.66;78.11;93407.19;5070619;28;20239;-81
2023/09/03 02:22:23;;;;;;;14.60;13.40;;;;;;;17.47;78.49;93387.06;5070472;28;20209;-84
2023/09/03 02:24:52;;;;;;;14.70;13.50;;;;;;;17.72;78.27;93390.13;5064535;28;20220;-83
2023/09/03 02:27:17;;;;;;;14.13;12.87;;;;;;;17.59;78.57;93395.22;5071371;28;20230;-84
2023/09/03 02:29:42;;;;;;;14.87;13.60;;;;;;;17.64;78.41;93399.59;5071383;28;20185;-83
2023/09/03 02:32:08;;;;;;;16.03;14.47;;;;;;;17.46;78.05;93366.25;5070660;28;20690;-84
2023/09/03 02:34:37;;;;;;;14.57;13.20;;;;;;;17.59;78.31;93386.50;5071249;28;20734;-84
2023/09/03 02:37:03;;;;;;;15.17;13.77;;;;;;;17.55;78.53;93396.13;5070813;28;20240;-84
2023/09/03 02:39:28;;;;;;;14.00;12.70;;;;;;;17.45;78.15;93399.78;5072257;28;20221;-84
2023/09/03 02:41:54;;;;;;;18.20;13.90;;;;;;;17.45;78.86;93399.00;5072367;28;20234;-84
2023/09/03 02:44:19;;;;;;;14.13;12.87;;;;;;;17.37;79.16;93384.63;5077698;28;20202;-81
2023/09/03 02:46:44;;;;;;;14.50;13.40;;;;;;;17.39;79.12;93390.41;5065073;28;20330;-83
2023/09/03 02:49:10;;;;;;;14.50;13.20;;;;;;;17.38;78.78;93399.41;5070713;28;20189;-83
2023/09/03 02:51:37;;;;;;;14.90;13.60;;;;;;;17.39;78.92;93403.59;5069672;28;20222;-84
2023/09/03 02:54:02;;;;;;;14.10;13.00;;;;;;;17.50;78.57;93399.66;5071832;28;20206;-84
2023/09/03 02:56:29;;;;;;;15.00;13.43;;;;;;;17.28;78.74;93393.56;5071048;28;20234;-83
2023/09/03 02:58:54;;;;;;;14.50;13.30;;;;;;;17.28;79.11;93402.28;5071872;28;20197;-79
2023/09/03 03:01:20;;;;;;;14.37;13.07;;;;;;;17.30;78.97;93408.03;5084442;28;20285;-83
2023/09/03 03:03:46;;;;;;;13.40;12.40;;;;;;;17.35;78.55;93413.19;5073282;28;20186;-83
2023/09/03 03:06:12;;;;;;;15.70;13.57;;;;;;;17.31;78.65;93404.31;5056185;28;20229;-84
2023/09/03 03:08:37;;;;;;;13.27;12.07;;;;;;;17.42;78.34;93400.34;5071375;28;20196;-83
2023/09/03 03:11:09;;;;;;;14.50;13.20;;;;;;;17.47;78.07;93397.63;5070202;28;20305;-83
2023/09/03 03:13:35;;;;;;;14.00;12.90;;;;;;;17.34;77.65;93377.31;5071417;28;20209;-81
2023/09/03 03:16:07;;;;;;;14.17;13.07;;;;;;;17.52;78.94;93394.09;5069715;28;20232;-83
2023/09/03 03:18:37;;;;;;;14.73;13.43;;;;;;;17.50;77.84;93389.09;5069502;28;20183;-83
2023/09/03 03:21:14;;;;;;;14.00;12.90;;;;;;;17.31;78.24;93391.13;5070395;28;20221;-84
2023/09/03 03:23:40;;;;;;;14.20;13.10;;;;;;;17.33;78.27;93386.31;5070807;28;20199;-83
2023/09/03 03:26:06;;;;;;;15.60;14.20;;;;;;;17.17;79.83;93390.38;5070503;28;20213;-84
2023/09/03 03:28:33;;;;;;;16.20;13.23;;;;;;;17.18;79.32;93384.03;5069319;28;20178;-84
2023/09/03 03:31:12;;;;;;;14.60;13.23;;;;;;;17.17;80.03;93379.84;5070529;28;20244;-83
2023/09/03 03:33:38;;;;;;;14.17;12.90;;;;;;;17.15;80.12;93384.63;5071291;28;20224;-83
2023/09/03 03:36:04;;;;;;;14.53;13.27;;;;;;;16.99;80.43;93375.50;5070260;28;20233;-84
2023/09/03 03:38:29;;;;;;;15.40;13.90;;;;;;;16.95;80.58;93377.16;5070400;28;20220;-83
2023/09/03 03:41:13;;;;;;;15.20;13.80;;;;;;;16.70;80.48;93342.69;5062867;28;20225;-84
2023/09/03 03:43:49;;;;;;;15.83;14.30;;;;;;;16.95;80.78;93379.06;5065304;28;20212;-83
2023/09/03 03:46:17;;;;;;;15.97;13.60;;;;;;;16.98;81.37;93384.50;5069954;28;20247;-82
2023/09/03 03:48:43;;;;;;;16.23;14.33;;;;;;;16.87;82.56;93369.97;5070217;28;20211;-84
2023/09/03 03:51:09;;;;;;;14.93;13.53;;;;;;;16.85;83.55;93380.06;5070946;28;20226;-83
2023/09/03 03:53:35;;;;;;;15.60;14.07;;;;;;;16.95;82.08;93385.09;5069690;28;20239;-83
2023/09/03 03:56:04;;;;;;;15.40;14.10;;;;;;;17.01;82.38;93389.16;5069610;28;20228;-84
2023/09/03 03:58:32;;;;;;;15.23;13.80;;;;;;;17.01;81.05;93383.88;5070144;28;20192;-84
2023/09/03 04:00:58;;;;;;;14.00;12.73;;;;;;;17.01;80.74;93383.13;5068933;28;20221;-83
2023/09/03 04:03:27;;;;;;;16.43;13.40;;;;;;;17.03;80.76;93381.75;5070491;28;20182;-84
2023/09/03 04:05:56;;;;;;;15.23;13.90;;;;;;;16.97;81.21;93388.22;5070090;28;20224;-83
2023/09/03 04:08:22;;;;;;;15.00;13.87;;;;;;;16.93;80.63;93397.81;5080766;28;20249;-83
2023/09/03 04:10:55;;;;;;;15.23;13.90;;;;;;;17.05;81.09;93394.63;5076769;28;20213;-83
2023/09/03 04:13:20;;;;;;;14.67;13.23;;;;;;;17.19;80.23;93398.00;5074501;28;20212;-84
2023/09/03 04:15:45;;;;;;;15.07;13.97;;;;;;;17.13;80.15;93394.72;5059646;28;20334;-80
2023/09/03 04:18:11;;;;;;;15.13;13.80;;;;;;;17.26;80.11;93393.88;5069973;28;20791;-83
2023/09/03 04:20:36;;;;;;;14.23;13.03;;;;;;;17.11;79.99;93381.03;5076796;28;20209;-83
2023/09/03 04:23:03;;;;;;;13.50;12.13;;;;;;;17.02;83.02;93385.47;5069987;28;20245;-84
2023/09/03 04:25:29;;;;;;;15.27;13.87;;;;;;;17.14;82.62;93391.00;5069274;28;20232;-83
2023/09/03 04:27:54;;;;;;;15.83;14.33;;;;;;;17.26;81.53;93391.22;5075962;28;20257;-83
2023/09/03 04:30:19;;;;;;;15.40;14.03;;;;;;;17.27;81.96;93387.53;5075782;28;20957;-84
2023/09/03 04:32:45;;;;;;;13.80;12.60;;;;;;;17.30;81.49;93392.19;5069153;28;20186;-83
2023/09/03 04:35:10;;;;;;;14.20;13.07;;;;;;;17.49;81.26;93389.41;5077696;28;20236;-83
2023/09/03 04:37:35;;;;;;;14.73;13.53;;;;;;;17.58;79.20;93396.31;5069360;28;20257;-84
2023/09/03 04:40:01;;;;;;;13.87;12.50;;;;;;;17.58;80.03;93393.66;5069709;28;20189;-84
2023/09/03 04:42:26;;;;;;;14.03;12.93;;;;;;;17.70;79.28;93387.03;5069584;28;20177;-80
2023/09/03 04:44:52;;;;;;;13.87;12.67;;;;;;;17.75;79.34;93385.03;5056811;28;20193;-81
2023/09/03 04:47:17;;;;;;;14.93;13.63;;;;;;;17.87;79.97;93389.78;5068947;28;20201;-83
2023/09/03 04:49:42;;;;;;;16.57;13.33;;;;;;;17.95;78.03;93387.16;5068753;28;20273;-83
2023/09/03 04:52:08;;;;;;;13.87;12.77;;;;;;;18.02;79.46;93381.44;5069179;28;20221;-83
2023/09/03 04:54:34;;;;;;;14.67;13.10;;;;;;;18.13;76.71;93388.00;5068726;28;20209;-78
2023/09/03 04:56:59;;;;;;;16.07;13.97;;;;;;;18.31;76.02;93381.69;5068597;28;20232;-84
2023/09/03 04:59:27;;;;;;;16.20;14.70;;;;;;;18.37;76.36;93369.88;5068249;28;20182;-83
2023/09/03 05:01:52;;;;;;;16.00;14.50;;;;;;;18.55;75.62;93380.22;5068787;28;20221;-84
2023/09/03 05:04:18;;;;;;;15.53;14.23;;;;;;;18.60;75.04;93380.09;5075907;28;20190;-79
2023/09/03 05:06:43;;;;;;;15.57;14.13;;;;;;;18.56;76.11;93376.50;5071863;28;20224;-83
2023/09/03 05:09:09;;;;;;;16.80;15.17;;;;;;;18.59;76.36;93372.47;5076228;28;20187;-84
2023/09/03 05:11:36;;;;;;;19.60;17.27;;;;;;;18.08;77.77;93357.22;5067371;28;20235;-84
2023/09/03 05:14:01;;;;;;;20.20;18.30;;;;;;;18.44;77.44;93367.63;5075984;28;20212;-85
2023/09/03 05:16:27;;;;;;;18.77;16.97;;;;;;;18.59;77.18;93369.81;5068245;28;20226;-83
2023/09/03 05:18:52;;;;;;;18.43;16.80;;;;;;;18.41;77.47;93347.84;5069232;28;20185;-83
2023/09/03 05:21:18;;;;;;;17.27;15.67;;;;;;;18.67;77.26;93361.13;5068659;28;20223;-83
2023/09/03 05:23:43;;;;;;;18.40;16.60;;;;;;;18.57;77.06;93354.25;5069406;28;20191;-79
2023/09/03 05:26:10;;;;;;;17.37;15.57;;;;;;;18.33;77.52;93351.22;5068083;28;20222;-83
2023/09/03 05:28:35;;;;;;;21.40;15.77;;;;;;;18.67;76.67;93359.25;5069365;28;20191;-83
2023/09/03 05:31:01;;;;;;;17.03;15.33;;;;;;;18.72;76.42;93367.03;5073269;28;20285;-84
2023/09/03 05:33:26;;;;;;;16.87;15.27;;;;;;;18.85;75.60;93357.38;5074832;28;20240;-85
2023/09/03 05:35:52;;;;;;;18.47;16.50;;;;;;;18.95;75.25;93360.53;5068946;28;20217;-83
2023/09/03 05:38:17;;;;;;;16.90;15.17;;;;;;;18.99;75.56;93363.31;5068827;28;20203;-80
2023/09/03 05:40:42;;;;;;;19.50;14.77;;;;;;;18.80;77.18;93366.25;5067402;28;20226;-83
2023/09/03 05:43:08;;;;;;;18.50;15.83;;;;;;;18.84;77.34;93374.38;5068998;28;20259;-83
2023/09/03 05:45:33;;;;;;;17.47;15.67;;;;;;;19.05;76.90;93362.84;5068460;28;20242;-83
2023/09/03 05:47:59;;;;;;;17.53;15.70;;;;;;;19.31;75.77;93370.81;5069087;28;20192;-83
2023/09/03 05:50:29;;;;;;;17.83;16.13;;;;;;;19.13;75.85;93371.88;5079345;28;20237;-79
2023/09/03 05:52:54;;;;;;;17.97;15.93;;;;;;;19.72;73.89;93376.34;5068655;28;20205;-80
2023/09/03 05:55:20;;;;;;;19.20;17.30;;;;;;;19.94;72.83;93376.13;5061005;28;20222;-84
2023/09/03 05:57:45;;;;;;;16.90;15.30;;;;;;;20.81;69.70;93386.03;5061450;28;20183;-84
2023/09/03 06:00:11;;;;;;;17.77;15.97;;;;;;;20.78;69.63;93370.75;5067032;28;20235;-83
2023/09/03 06:02:36;;;;;;;18.00;16.20;;;;;;;20.10;72.01;93387.78;5068861;28;20195;-83
2023/09/03 06:05:02;;;;;;;18.90;17.00;;;;;;;19.77;73.25;93386.00;5068551;28;20187;-84
2023/09/03 06:07:27;;;;;;;20.03;17.10;;;;;;;19.72;73.79;93388.84;5068109;28;20206;-79
2023/09/03 06:09:53;;;;;;;18.67;16.67;;;;;;;20.04;73.24;93397.00;5067344;28;20199;-83
2023/09/03 06:12:18;;;;;;;19.47;17.37;;;;;;;20.12;72.66;93388.25;5068478;28;20194;-83
2023/09/03 06:14:44;;;;;;;18.67;16.87;;;;;;;20.50;71.25;93391.69;5067029;28;20410;-84
2023/09/03 06:17:09;;;;;;;18.63;16.38;;;;;;;20.54;70.56;93397.94;5068243;28;20219;-85
2023/09/03 06:19:35;;;;;;;18.90;17.03;;;;;;;20.14;72.68;93404.63;5068126;28;20206;-79
2023/09/03 06:22:00;;;;;;;18.43;16.63;;;;;;;20.07;72.70;93399.03;5068520;28;20223;-84
2023/09/03 06:24:26;;;;;;;19.17;17.43;;;;;;;20.51;71.52;93403.84;5071214;28;20224;-83
2023/09/03 06:26:52;;;;;;;18.00;16.27;;;;;;;20.77;71.04;93401.06;5076020;28;20236;-83
2023/09/03 06:29:17;;;;;;;20.40;18.40;;;;;;;20.51;71.72;93406.50;5069648;28;20214;-84
2023/09/03 06:31:42;;;;;;;18.27;16.55;;;;;;;20.85;70.31;93407.41;5063688;28;20212;-83
2023/09/03 06:34:08;;;;;;;19.05;17.27;;;;;;;20.30;72.02;93397.72;5069595;28;20240;-84
2023/09/03 06:36:33;;;;;;;19.73;17.13;;;;;;;20.53;71.05;93395.56;5071839;28;20228;-84
2023/09/03 06:38:59;;;;;;;20.42;18.33;;;;;;;20.60;71.02;93411.78;5071151;28;20200;-82
2023/09/03 06:41:24;;;;;;;19.03;17.10;;;;;;;20.72;70.89;93413.75;5071780;28;20314;-84
2023/09/03 06:43:50;;;;;;;18.90;16.55;;;;;;;20.93;69.37;93418.00;5072095;28;20195;-84
2023/09/03 06:46:15;;;;;;;18.85;16.80;;;;;;;21.14;68.81;93418.00;5071515;28;20276;-79
2023/09/03 06:48:40;;;;;;;19.25;16.88;;;;;;;21.04;69.28;93413.88;5070662;28;20189;-84
2023/09/03 06:51:06;;;;;;;18.90;17.02;;;;;;;20.85;69.36;93412.72;5070532;28;20225;-83
2023/09/03 06:53:32;;;;;;;17.85;16.10;;;;;;;20.79;69.75;93404.19;5070582;28;20924;-83
2023/09/03 06:55:57;;;;;;;18.45;16.55;;;;;;;20.97;69.21;93415.47;5072217;28;20317;-82
2023/09/03 06:58:22;;;;;;;18.75;16.90;;;;;;;21.03;69.46;93406.25;5071087;28;20177;-82
2023/09/03 07:00:48;;;;;;;18.40;16.45;;;;;;;21.22;68.16;93419.84;5071196;28;20239;-84
2023/09/03 07:03:13;;;;;;;18.98;17.00;;;;;;;21.84;65.57;93424.03;5069319;28;20188;-83
2023/09/03 07:05:39;;;;;;;19.58;16.02;;;;;;;21.61;66.84;93419.38;5070288;28;20220;-83
2023/09/03 07:08:05;;;;;;;16.80;15.15;;;;;;;22.20;64.53;93426.00;5071714;28;20219;-83
2023/09/03 07:10:31;;;;;;;17.55;15.73;;;;;;;22.18;65.01;93428.19;5070990;28;20264;-84
2023/09/03 07:12:56;;;;;;;18.65;16.85;;;;;;;22.34;64.41;93433.66;5070796;28;20209;-79
2023/09/03 07:15:23;;;;;;;17.25;15.65;;;;;;;22.33;63.32;93430.25;5071122;28;20229;-84
2023/09/03 07:17:48;;;;;;;17.38;15.77;;;;;;;22.08;64.26;93428.63;5070763;28;20176;-83
2023/09/03 07:20:13;;;;;;;18.48;16.30;;;;;;;21.65;65.90;93426.34;5070792;28;20299;-83
2023/09/03 07:22:40;;;;;;;19.15;16.80;;;;;;;21.44;66.40;93425.63;5071381;28;20185;-84
2023/09/03 07:25:06;;;;;;;16.73;15.10;;;;;;;21.67;65.91;93429.47;5070202;28;20170;-84
2023/09/03 07:27:32;;;;;;;17.80;16.10;;;;;;;22.49;63.98;93428.47;5067657;28;20217;-83
2023/09/03 07:29:58;;;;;;;19.00;15.60;;;;;;;22.46;62.69;93431.78;5070886;28;20224;-83
2023/09/03 07:32:23;;;;;;;17.15;15.50;;;;;;;22.36;63.36;93429.59;5068973;28;20167;-84
2023/09/03 07:34:50;;;;;;;15.77;13.98;;;;;;;22.52;63.77;93430.53;5071612;28;20212;-85
2023/09/03 07:37:17;;;;;;;17.30;15.50;;;;;;;22.95;61.17;93429.94;5070607;28;20222;-86
2023/09/03 07:39:43;;;;;;;16.17;14.63;;;;;;;22.91;61.01;93427.16;5071072;28;20187;-85
2023/09/03 07:42:09;;;;;;;16.98;15.20;;;;;;;22.03;63.39;93429.63;5070280;28;20232;-84
2023/09/03 07:44:34;;;;;;;15.63;14.25;;;;;;;22.39;62.00;93436.13;5070323;28;20224;-84
2023/09/03 07:46:59;;;;;;;15.80;14.32;;;;;;;22.82;61.74;93439.84;5068761;28;20287;-84
2023/09/03 07:49:25;;;;;;;14.63;13.27;;;;;;;22.65;60.84;93434.72;5070896;28;20184;-80
2023/09/03 07:51:51;;;;;;;16.15;14.65;;;;;;;22.62;60.76;93437.28;5070218;28;20214;-85
2023/09/03 07:54:16;;;;;;;15.05;13.52;;;;;;;23.20;59.46;93424.25;5070753;28;20210;-84
2023/09/03 07:56:42;;;;;;;17.45;13.98;;;;;;;23.59;58.07;93436.06;5068140;28;20224;-84
2023/09/03 07:59:07;;;;;;;14.63;13.18;;;;;;;23.52;57.04;93435.84;5070668;28;20182;-83
2023/09/03 08:01:33;;;;;;;16.08;14.65;;;;;;;23.52;57.50;93427.84;5070243;28;20221;-82
2023/09/03 08:03:59;;;;;;;15.52;13.93;;;;;;;23.69;57.04;93439.03;5068580;28;20190;-84
2023/09/03 08:06:24;;;;;;;14.65;13.35;;;;;;;23.62;56.52;93441.50;5068468;28;20216;-83
2023/09/03 08:08:59;;;;;;;12.65;11.48;;;;;;;23.70;52.41;93445.16;5069946;28;20187;-84
2023/09/03 08:11:24;;;;;;;12.70;11.57;;;;;;;23.65;54.92;93437.38;5070002;28;20253;-84
2023/09/03 08:13:51;;;;;;;13.70;11.52;;;;;;;23.77;52.68;93436.56;5070546;28;20208;-84
2023/09/03 08:16:17;;;;;;;12.95;11.75;;;;;;;24.04;52.80;93433.13;5067932;28;20294;-80
2023/09/03 08:18:42;;;;;;;13.82;12.60;;;;;;;24.13;52.15;93431.84;5070565;28;20173;-84
2023/09/03 08:21:08;;;;;;;15.13;11.18;;;;;;;24.05;51.53;93435.44;5066694;28;20230;-84
2023/09/03 08:23:33;;;;;;;13.98;12.38;;;;;;;24.03;52.99;93436.94;5070261;28;20197;-85
2023/09/03 08:25:59;;;;;;;12.90;11.80;;;;;;;24.03;51.19;93429.69;5066462;28;20228;-83
2023/09/03 08:28:24;;;;;;;12.82;11.55;;;;;;;24.31;50.01;93426.97;5070045;28;20203;-84
2023/09/03 08:30:49;;;;;;;12.07;11.02;;;;;;;24.39;50.45;93428.72;5064715;28;20221;-85
2023/09/03 08:33:15;;;;;;;12.63;11.63;;;;;;;24.32;49.00;93428.53;5061484;28;20211;-86
2023/09/03 08:35:40;;;;;;;12.73;11.35;;;;;;;24.38;49.30;93424.47;5069886;28;20218;-84
2023/09/03 08:38:05;;;;;;;12.10;11.00;;;;;;;24.21;48.67;93424.81;5070494;28;20220;-84
2023/09/03 08:40:32;;;;;;;12.60;11.55;;;;;;;24.08;49.04;93423.34;5068762;28;20220;-84
2023/09/03 08:42:59;;;;;;;11.50;10.60;;;;;;;24.42;47.21;93412.00;5069941;28;20214;-80
2023/09/03 08:45:28;;;;;;;12.85;11.70;;;;;;;24.65;47.03;93423.63;5067613;28;20215;-85
2023/09/03 08:47:55;;;;;;;11.90;10.95;;;;;;;24.69;45.63;93417.28;5070037;28;20183;-83
2023/09/03 08:50:22;;;;;;;11.10;10.30;;;;;;;24.39;46.25;93413.44;5067916;28;20228;-84
2023/09/03 08:52:47;;;;;;;11.05;9.95;;;;;;;24.85;44.55;93412.72;5058352;28;20212;-84
2023/09/03 08:55:13;;;;;;;11.23;10.43;;;;;;;24.95;44.70;93398.03;5065882;28;20240;-84
2023/09/03 08:57:39;;;;;;;11.68;10.88;;;;;;;25.36;43.96;93407.34;5069599;28;20197;-84
2023/09/03 09:00:06;;;;;;;12.75;10.85;;;;;;;25.27;43.92;93407.53;5066310;28;20179;-83
2023/09/03 09:02:36;;;;;;;12.45;11.45;;;;;;;25.21;43.93;93396.31;5069356;28;20247;-84
2023/09/03 09:05:05;;;;;;;12.57;11.68;;;;;;;25.24;43.67;93400.19;5067292;28;20189;-84
2023/09/03 09:07:31;;;;;;;13.15;12.05;;;;;;;24.73;44.83;93390.66;5066945;28;20188;-80
2023/09/03 09:10:00;;;;;;;11.07;10.30;;;;;;;25.24;43.84;93378.81;5069777;28;20188;-84
2023/09/03 09:12:35;;;;;;;11.93;10.82;;;;;;;25.40;43.78;93382.25;5068995;28;20183;-85
2023/09/03 09:15:03;;;;;;;12.48;11.48;;;;;;;24.96;44.41;93383.56;5066660;28;20349;-83
2023/09/03 09:17:39;;;;;;;11.32;10.23;;;;;;;25.03;44.13;93381.00;5069013;28;20183;-84
2023/09/03 09:20:05;;;;;;;12.65;11.60;;;;;;;25.04;42.93;93380.66;5068798;28;20214;-85
2023/09/03 09:22:37;;;;;;;13.18;11.85;;;;;;;25.24;41.84;93384.94;5068821;28;20356;-83
2023/09/03 09:25:03;;;;;;;17.38;11.13;;;;;;;25.40;42.64;93386.81;5056242;28;20193;-85
2023/09/03 09:27:28;;;;;;;13.57;12.40;;;;;;;25.24;43.31;93384.94;5065805;28;20181;-84
2023/09/03 09:30:08;;;;;;;12.00;11.10;;;;;;;25.36;43.92;93377.94;5059235;28;20236;-83
2023/09/03 09:32:33;;;;;;;14.00;12.38;;;;;;;25.44;42.19;93377.72;5067335;28;20182;-84
2023/09/03 09:34:59;;;;;;;12.30;11.35;;;;;;;25.20;42.80;93365.38;5068249;28;20215;-83
2023/09/03 09:37:24;;;;;;;12.60;11.50;;;;;;;25.49;39.86;93369.44;5067958;28;20279;-80
2023/09/03 09:39:49;;;;;;;11.50;10.45;;;;;;;25.23;40.99;93358.56;5068404;28;20192;-84
2023/09/03 09:42:18;;;;;;;13.25;12.25;;;;;;;25.57;41.54;93360.44;5075419;28;20220;-84
2023/09/03 09:44:53;;;;;;;12.30;11.07;;;;;;;25.80;41.48;93358.56;5068985;28;20198;-84
2023/09/03 09:47:20;;;;;;;12.30;11.30;;;;;;;26.00;40.05;93356.66;5073602;28;20199;-84
2023/09/03 09:49:46;;;;;;;11.88;10.82;;;;;;;26.09;39.19;93366.00;5074368;28;20202;-84
2023/09/03 09:52:15;;;;;;;12.13;11.13;;;;;;;26.05;39.13;93359.84;5074063;28;20211;-82
2023/09/03 09:54:45;;;;;;;12.32;11.23;;;;;;;25.90;39.53;93355.31;5075091;28;20215;-80
2023/09/03 09:57:11;;;;;;;11.90;10.90;;;;;;;25.70;39.08;93356.47;5066956;28;20627;-82
2023/09/03 09:59:36;;;;;;;12.77;11.70;;;;;;;25.64;39.44;93349.84;5069099;28;20172;-84
2023/09/03 10:02:12;;;;;;;11.35;10.48;;;;;;;25.82;38.78;93345.59;5070593;28;20217;-84
2023/09/03 10:04:45;;;;;;;11.90;10.90;;;;;;;26.17;37.60;93343.59;5070519;28;20225;-85
2023/09/03 10:07:11;;;;;;;11.10;10.18;;;;;;;25.80;37.80;93326.47;5061315;28;20227;-85
2023/09/03 10:09:41;;;;;;;11.90;10.90;;;;;;;26.11;37.88;93326.28;5070051;28;20181;-84
2023/09/03 10:12:08;;;;;;;11.20;10.40;;;;;;;26.26;36.96;93325.38;5072176;28;20225;-81
2023/09/03 10:14:34;;;;;;;11.57;10.48;;;;;;;25.90;36.70;93323.19;5069446;28;20252;-84
2023/09/03 10:17:02;;;;;;;12.15;10.55;;;;;;;25.85;37.49;93318.16;5072442;28;20248;-84
2023/09/03 10:19:34;;;;;;;11.82;10.55;;;;;;;25.92;37.79;93307.56;5072577;28;20197;-84
2023/09/03 10:22:02;;;;;;;10.90;10.10;;;;;;;26.43;36.41;93319.53;5080222;28;20216;-86
2023/09/03 10:24:30;;;;;;;11.75;10.85;;;;;;;26.53;35.34;93316.25;5072829;28;20195;-84
2023/09/03 10:26:59;;;;;;;10.93;10.13;;;;;;;26.64;36.75;93311.06;5074991;28;20225;-85
2023/09/03 10:29:27;;;;;;;11.55;10.38;;;;;;;26.74;34.21;93311.22;5072135;28;20185;-84
2023/09/03 10:31:54;;;;;;;11.90;10.82;;;;;;;26.68;33.76;93309.19;5068375;28;20729;-83
2023/09/03 10:34:20;;;;;;;11.63;10.57;;;;;;;26.44;34.04;93312.28;5076302;28;20216;-85
2023/09/03 10:37:08;;;;;;;11.30;10.38;;;;;;;26.46;33.10;93310.00;5071897;28;20237;-85
2023/09/03 10:39:36;;;;;;;11.00;10.13;;;;;;;26.28;33.30;93306.28;5061379;28;20196;-86
2023/09/03 10:42:14;;;;;;;10.18;9.43;;;;;;;26.41;34.02;93304.97;5070552;28;20277;-84
2023/09/03 10:44:44;;;;;;;11.20;10.38;;;;;;;26.35;34.82;93303.72;5072192;28;20197;-86
2023/09/03 10:47:17;;;;;;;11.32;10.23;;;;;;;26.55;35.20;93292.53;5070151;28;20767;-80
2023/09/03 10:49:44;;;;;;;11.48;10.57;;;;;;;26.64;35.15;93285.06;5072190;28;20240;-85
2023/09/03 10:52:28;;;;;;;10.50;9.63;;;;;;;26.38;33.74;93281.56;5069952;28;20236;-81
2023/09/03 10:55:20;;;;;;;10.73;9.93;;;;;;;26.74;34.18;93281.00;5071078;28;20237;-84
2023/09/03 10:57:47;;;;;;;9.38;8.68;;;;;;;26.76;32.30;93275.25;5070078;28;20197;-85
2023/09/03 11:00:18;;;;;;;10.00;9.20;;;;;;;26.85;32.47;93262.38;5071162;28;20259;-84
2023/09/03 11:02:44;;;;;;;10.10;9.40;;;;;;;26.72;33.09;93264.50;5071627;28;20200;-85
2023/09/03 11:05:10;;;;;;;10.43;9.63;;;;;;;27.03;32.15;93271.41;5074982;28;20193;-83
2023/09/03 11:07:35;;;;;;;11.02;10.05;;;;;;;26.91;32.67;93261.69;5078080;28;20182;-87
2023/09/03 11:10:19;;;;;;;10.20;9.50;;;;;;;26.53;31.92;93268.03;5071065;28;20193;-84
2023/09/03 11:12:46;;;;;;;10.80;10.00;;;;;;;26.77;32.16;93248.84;5064656;28;20530;-84
2023/09/03 11:15:13;;;;;;;10.43;9.63;;;;;;;26.91;32.20;93255.53;5070852;28;20248;-84
2023/09/03 11:17:38;;;;;;;11.25;10.38;;;;;;;26.79;32.55;93253.09;5069981;28;20201;-84